createdAt,value
2018-09-27T00:00:44.883Z,13.07
2018-09-27T00:03:14.470Z,13.07
2018-09-27T00:05:43.715Z,13.05
2018-09-27T00:08:14.901Z,13.06
2018-09-27T00:11:01.432Z,13.03
2018-09-27T00:16:21.073Z,13.04
2018-09-27T00:34:55.576Z,13.05
2018-09-27T00:37:43.960Z,13.75
2018-09-27T00:51:45.447Z,12.78
2018-09-27T00:54:43.508Z,12.72
2018-09-27T01:09:38.224Z,13.49
2018-09-27T01:12:26.045Z,12.99
2018-09-27T01:15:28.696Z,12.90
2018-09-27T01:26:57.456Z,12.80
2018-09-27T01:29:40.659Z,13.51
2018-09-27T01:32:43.267Z,13.03
2018-09-27T01:44:31.625Z,12.87
2018-09-27T01:50:43.731Z,12.87
2018-09-27T01:56:15.566Z,13.58
2018-09-27T02:02:09.383Z,13.00
2018-09-27T02:11:09.579Z,12.88
2018-09-27T02:25:39.057Z,13.05
2018-09-27T02:31:36.502Z,13.10
2018-09-27T02:34:25.697Z,13.12
2018-09-27T02:43:07.503Z,13.35
2018-09-27T02:45:55.045Z,13.34
2018-09-27T02:51:30.794Z,13.33
2018-09-27T02:54:18.477Z,13.34
2018-09-27T02:57:05.900Z,14.10
2018-09-27T03:02:56.374Z,13.48
2018-09-27T03:14:45.279Z,13.40
2018-09-27T03:20:24.853Z,14.42
2018-09-27T03:23:08.946Z,13.87
2018-09-27T03:28:44.441Z,13.70
2018-09-27T03:34:46.326Z,13.61
2018-09-27T03:37:23.976Z,13.61
2018-09-27T03:49:14.715Z,13.73
2018-09-27T03:55:23.881Z,13.68
2018-09-27T04:01:12.759Z,13.64
2018-09-27T04:07:03.809Z,14.40
2018-09-27T04:13:07.997Z,14.45
2018-09-27T04:15:57.066Z,13.82
2018-09-27T04:25:17.975Z,13.41
2018-09-27T04:28:14.855Z,13.31
2018-09-27T04:30:53.760Z,13.96
2018-09-27T04:39:57.745Z,13.16
2018-09-27T04:42:48.045Z,13.10
2018-09-27T04:45:38.219Z,13.04
2018-09-27T04:51:52.428Z,12.90
2018-09-27T05:03:35.693Z,12.93
2018-09-27T05:06:31.381Z,12.88
2018-09-27T05:09:18.790Z,12.82
2018-09-27T05:15:39.303Z,12.72
2018-09-27T05:18:27.571Z,12.69
2018-09-27T05:21:15.010Z,12.66
2018-09-27T05:27:09.003Z,12.62
2018-09-27T05:29:56.888Z,12.61
2018-09-27T05:39:10.093Z,12.80
2018-09-27T05:45:19.231Z,12.88
2018-09-27T05:48:08.514Z,12.97
2018-09-27T05:51:14.080Z,13.08
2018-09-27T06:03:35.552Z,13.48
2018-09-27T06:06:24.936Z,13.58
2018-09-27T06:09:12.968Z,13.67
2018-09-27T06:12:08.317Z,14.53
2018-09-27T06:24:14.961Z,14.33
2018-09-27T06:27:02.531Z,14.42
2018-09-27T06:32:56.064Z,14.60
2018-09-27T06:35:44.655Z,14.71
2018-09-27T06:38:32.619Z,14.78
2018-09-27T06:41:21.134Z,14.84
2018-09-27T06:44:09.173Z,14.89
2018-09-27T06:46:56.713Z,14.97
2018-09-27T06:49:52.139Z,15.03
2018-09-27T06:52:54.808Z,15.10
2018-09-27T07:01:54.543Z,15.38
2018-09-27T07:07:48.905Z,16.44
2018-09-27T07:10:40.204Z,16.76
2018-09-27T07:13:27.418Z,16.12
2018-09-27T07:19:23.011Z,16.00
2018-09-27T07:22:20.397Z,16.06
2018-09-27T07:25:08.148Z,16.18
2018-09-27T07:27:59.620Z,16.36
2018-09-27T07:30:53.639Z,16.59
2018-09-27T07:33:45.178Z,16.79
2018-09-27T07:36:32.385Z,17.00
2018-09-27T07:42:25.674Z,17.38
2018-09-27T07:48:19.888Z,17.74
2018-09-27T07:51:08.303Z,17.87
2018-09-27T07:53:56.488Z,18.01
2018-09-27T07:56:44.854Z,18.19
2018-09-27T07:59:33.219Z,19.42
2018-09-27T08:02:21.351Z,19.75
2018-09-27T08:08:14.666Z,19.33
2018-09-27T08:11:03.161Z,19.32
2018-09-27T08:13:50.965Z,19.36
2018-09-27T08:16:38.730Z,19.45
2018-09-27T08:19:26.033Z,19.51
2018-09-27T08:28:27.495Z,19.81
2018-09-27T08:31:17.049Z,19.93
2018-09-27T08:34:05.788Z,20.06
2018-09-27T08:36:53.208Z,20.16
2018-09-27T08:39:41.442Z,20.20
2018-09-27T08:42:29.078Z,20.08
2018-09-27T08:45:17.962Z,20.14
2018-09-27T08:48:05.509Z,20.33
2018-09-27T08:50:53.667Z,20.50
2018-09-27T08:53:56.022Z,20.64
2018-09-27T08:59:55.135Z,20.91
2018-09-27T09:02:44.051Z,21.11
2018-09-27T09:11:45.032Z,21.73
2018-09-27T09:14:32.839Z,21.74
2018-09-27T09:17:20.306Z,21.85
2018-09-27T09:20:13.948Z,22.01
2018-09-27T09:23:03.164Z,22.09
2018-09-27T09:25:51.692Z,22.20
2018-09-27T09:28:49.030Z,22.30
2018-09-27T09:31:36.937Z,22.47
2018-09-27T09:34:41.054Z,23.73
2018-09-27T09:37:29.262Z,23.04
2018-09-27T09:40:18.602Z,23.06
2018-09-27T09:43:10.906Z,23.14
2018-09-27T09:45:58.139Z,23.23
2018-09-27T09:48:45.974Z,24.41
2018-09-27T09:51:34.908Z,23.70
2018-09-27T09:54:23.254Z,23.68
2018-09-27T09:57:12.868Z,23.78
2018-09-27T10:03:09.643Z,23.72
2018-09-27T10:05:59.432Z,23.73
2018-09-27T10:08:48.450Z,23.70
2018-09-27T10:14:43.827Z,24.05
2018-09-27T10:20:38.899Z,23.96
2018-09-27T10:26:36.681Z,24.06
2018-09-27T10:29:26.179Z,25.23
2018-09-27T10:38:29.121Z,24.27
2018-09-27T10:41:18.228Z,24.27
2018-09-27T10:44:12.274Z,25.45
2018-09-27T10:50:21.712Z,24.75
2018-09-27T10:53:09.360Z,24.61
2018-09-27T10:59:09.486Z,24.53
2018-09-27T11:01:57.906Z,25.74
2018-09-27T11:04:45.279Z,24.97
2018-09-27T11:07:32.801Z,24.88
2018-09-27T11:10:20.414Z,24.80
2018-09-27T11:13:08.240Z,24.80
2018-09-27T11:16:18.076Z,24.78
2018-09-27T11:19:05.335Z,24.62
2018-09-27T11:21:52.644Z,24.62
2018-09-27T11:24:39.874Z,24.63
2018-09-27T11:27:27.479Z,24.60
2018-09-27T11:30:23.894Z,24.66
2018-09-27T11:36:20.505Z,24.83
2018-09-27T11:39:08.059Z,24.80
2018-09-27T11:45:14.663Z,25.12
2018-09-27T11:57:28.219Z,24.97
2018-09-27T12:00:19.009Z,24.98
2018-09-27T12:03:07.273Z,26.12
2018-09-27T12:05:55.732Z,25.34
2018-09-27T12:14:55.851Z,25.15
2018-09-27T12:17:43.575Z,26.20
2018-09-27T12:20:30.992Z,26.43
2018-09-27T12:23:18.175Z,25.65
2018-09-27T12:26:05.594Z,25.49
2018-09-27T12:28:57.498Z,26.50
2018-09-27T12:34:52.286Z,25.57
2018-09-27T12:37:42.104Z,25.48
2018-09-27T12:40:30.244Z,25.49
2018-09-27T12:43:17.687Z,25.48
2018-09-27T12:46:05.395Z,25.45
2018-09-27T12:52:24.201Z,25.46
2018-09-27T12:55:16.034Z,25.41
2018-09-27T12:58:04.919Z,25.45
2018-09-27T13:00:53.451Z,25.48
2018-09-27T13:06:52.234Z,25.48
2018-09-27T13:09:47.333Z,25.56
2018-09-27T13:12:34.236Z,25.60
2018-09-27T13:18:47.442Z,25.59
2018-09-27T13:21:46.022Z,25.59
2018-09-27T13:24:41.316Z,25.64
2018-09-27T13:27:36.623Z,25.73
2018-09-27T13:30:33.582Z,26.79
2018-09-27T13:33:30.855Z,26.00
2018-09-27T13:36:18.418Z,25.85
2018-09-27T13:38:49.987Z,25.84
2018-09-27T13:44:27.400Z,25.69
2018-09-27T13:47:16.659Z,25.59
2018-09-27T13:50:04.190Z,25.54
2018-09-27T13:52:55.816Z,25.59
2018-09-27T13:55:43.555Z,25.58
2018-09-27T13:58:32.775Z,25.51
2018-09-27T14:01:21.712Z,25.43
2018-09-27T14:03:56.673Z,25.41
2018-09-27T14:13:24.971Z,26.54
2018-09-27T14:16:14.016Z,25.68
2018-09-27T14:21:50.978Z,25.46
2018-09-27T14:27:49.314Z,26.23
2018-09-27T14:30:34.711Z,25.53
2018-09-27T14:36:46.807Z,25.24
2018-09-27T14:39:40.636Z,25.16
2018-09-27T14:45:37.515Z,24.97
2018-09-27T14:48:34.294Z,24.92
2018-09-27T14:51:21.982Z,24.87
2018-09-27T14:54:10.888Z,25.72
2018-09-27T14:56:58.929Z,25.85
2018-09-27T14:59:47.164Z,25.93
2018-09-27T15:02:41.164Z,25.15
2018-09-27T15:05:34.883Z,25.76
2018-09-27T15:08:04.812Z,25.08
2018-09-27T15:10:53.099Z,24.87
2018-09-27T15:13:41.928Z,25.59
2018-09-27T15:16:23.660Z,24.90
2018-09-27T15:19:11.620Z,24.74
2018-09-27T15:22:00.335Z,24.58
2018-09-27T15:24:48.085Z,24.45
2018-09-27T15:27:35.387Z,24.34
2018-09-27T15:30:22.858Z,24.22
2018-09-27T15:33:10.420Z,24.12
2018-09-27T15:39:13.939Z,23.89
2018-09-27T15:42:01.079Z,23.83
2018-09-27T15:44:48.713Z,23.74
2018-09-27T15:47:38.498Z,24.47
2018-09-27T15:50:10.035Z,23.87
2018-09-27T15:53:00.338Z,23.67
2018-09-27T15:55:49.887Z,24.34
2018-09-27T15:58:37.210Z,23.67
2018-09-27T16:01:26.274Z,23.48
2018-09-27T16:07:02.612Z,23.46
2018-09-27T16:12:56.090Z,23.07
2018-09-27T16:15:24.746Z,22.96
2018-09-27T16:18:12.167Z,22.82
2018-09-27T16:24:05.716Z,22.54
2018-09-27T16:27:00.839Z,22.43
2018-09-27T16:32:54.451Z,22.42
2018-09-27T16:35:41.721Z,22.26
2018-09-27T16:38:28.702Z,22.11
2018-09-27T16:44:37.678Z,21.86
2018-09-27T16:47:25.493Z,22.44
2018-09-27T16:53:19.786Z,21.63
2018-09-27T16:56:06.997Z,21.49
2018-09-27T16:58:54.542Z,21.33
2018-09-27T17:01:42.041Z,21.20
2018-09-27T17:04:29.071Z,21.76
2018-09-27T17:07:16.336Z,21.13
2018-09-27T17:10:03.898Z,20.90
2018-09-27T17:12:51.244Z,20.71
2018-09-27T17:15:38.726Z,20.57
2018-09-27T17:24:39.076Z,20.15
2018-09-27T17:27:41.677Z,20.03
2018-09-27T17:30:28.998Z,20.63
2018-09-27T17:33:16.546Z,20.03
2018-09-27T17:36:03.892Z,20.55
2018-09-27T17:38:51.521Z,19.93
2018-09-27T17:41:38.939Z,19.72
2018-09-27T17:44:26.534Z,20.28
2018-09-27T17:50:20.213Z,20.21
2018-09-27T17:53:07.749Z,19.60
2018-09-27T17:55:58.170Z,19.41
2018-09-27T18:01:49.086Z,19.13
2018-09-27T18:04:36.850Z,19.06
2018-09-27T18:07:24.072Z,19.01
2018-09-27T18:10:11.211Z,18.95
2018-09-27T18:12:59.040Z,18.88
2018-09-27T18:22:03.507Z,19.35
2018-09-27T18:24:50.829Z,18.84
2018-09-27T18:30:44.437Z,19.50
2018-09-27T18:33:31.572Z,18.89
2018-09-27T18:36:19.019Z,18.66
2018-09-27T18:39:06.344Z,18.51
2018-09-27T18:41:54.126Z,19.08
2018-09-27T18:44:41.963Z,19.15
2018-09-27T18:47:30.765Z,18.53
2018-09-27T18:50:18.205Z,18.31
2018-09-27T18:53:06.188Z,18.83
2018-09-27T18:56:12.040Z,18.19
2018-09-27T19:05:13.518Z,17.58
2018-09-27T19:11:07.428Z,17.32
2018-09-27T19:13:58.479Z,17.22
2018-09-27T19:16:45.961Z,17.14
2018-09-27T19:19:34.761Z,17.05
2018-09-27T19:22:22.318Z,16.96
2018-09-27T19:37:39.364Z,16.53
2018-09-27T19:43:35.289Z,16.39
2018-09-27T19:46:22.720Z,16.34
2018-09-27T19:49:10.107Z,16.30
2018-09-27T19:51:57.631Z,16.23
2018-09-27T19:54:45.241Z,16.17
2018-09-27T19:57:32.455Z,16.12
2018-09-27T20:06:33.456Z,15.89
2018-09-27T20:09:03.186Z,15.85
2018-09-27T20:14:38.653Z,16.42
2018-09-27T20:17:26.628Z,16.53
2018-09-27T20:20:13.790Z,16.59
2018-09-27T20:22:42.824Z,16.03
2018-09-27T20:25:30.093Z,16.49
2018-09-27T20:31:27.009Z,15.65
2018-09-27T20:34:14.086Z,15.50
2018-09-27T20:37:01.628Z,15.40
2018-09-27T20:39:49.229Z,15.30
2018-09-27T20:42:18.111Z,15.26
2018-09-27T20:45:21.802Z,15.18
2018-09-27T20:48:14.385Z,15.82
2018-09-27T20:50:42.937Z,15.31
2018-09-27T20:53:37.972Z,15.15
2018-09-27T20:56:25.394Z,15.74
2018-09-27T20:59:12.546Z,15.23
2018-09-27T21:01:59.869Z,15.13
2018-09-27T21:04:31.384Z,15.08
2018-09-27T21:07:19.010Z,15.03
2018-09-27T21:16:19.021Z,15.61
2018-09-27T21:25:18.684Z,15.14
2018-09-27T21:34:18.302Z,14.89
2018-09-27T21:37:05.879Z,14.82
2018-09-27T21:39:53.378Z,15.40
2018-09-27T21:42:41.159Z,14.92
2018-09-27T21:45:28.991Z,14.78
2018-09-27T21:47:57.599Z,14.72
2018-09-27T21:50:44.972Z,14.63
2018-09-27T21:56:21.181Z,15.34
2018-09-27T21:59:08.727Z,14.80
2018-09-27T22:01:56.290Z,14.66
2018-09-27T22:04:43.272Z,14.57
2018-09-27T22:10:42.172Z,14.42
2018-09-27T22:16:18.704Z,14.27
2018-09-27T22:19:06.307Z,14.21
2018-09-27T22:22:08.698Z,14.16
2018-09-27T22:25:03.611Z,14.08
2018-09-27T22:27:51.731Z,14.66
2018-09-27T22:30:39.949Z,14.78
2018-09-27T22:33:27.449Z,14.24
2018-09-27T22:39:21.565Z,14.00
2018-09-27T22:42:06.327Z,13.94
2018-09-27T22:48:00.139Z,13.96
2018-09-27T22:50:47.631Z,13.86
2018-09-27T22:56:41.381Z,13.72
2018-09-27T22:59:28.680Z,13.68
2018-09-27T23:02:17.730Z,13.63
2018-09-27T23:05:05.379Z,13.60
2018-09-27T23:07:53.192Z,13.57
2018-09-27T23:13:28.275Z,13.51
2018-09-27T23:16:15.695Z,13.45
2018-09-27T23:19:07.166Z,13.37
2018-09-27T23:21:54.301Z,13.29
2018-09-27T23:24:41.440Z,13.20
2018-09-27T23:27:28.765Z,13.13
2018-09-27T23:30:16.098Z,13.05
2018-09-27T23:36:11.070Z,12.90
2018-09-27T23:38:42.414Z,13.46
2018-09-27T23:41:29.900Z,13.63
2018-09-27T23:44:17.251Z,13.13
2018-09-27T23:46:47.005Z,13.05
2018-09-27T23:49:35.085Z,12.97
2018-09-27T23:55:28.959Z,12.82
2018-09-27T23:58:16.588Z,12.77
